Terminal Aerodrome Forecast
Issued by NWS Louisville, KY

Home | Current Version | Previous Version | Text Only | Print | Product List | Glossary On
Versions: 1 2 3 4 5 6 7 8 9 10 11 12 13 14 15 16 17 18 19
048
FTUS43 KLMK 050936 AAA
TAFSDF
TAF AMD
KSDF 050936Z 0510/0612 VRB04KT P6SM OVC016
     FM051300 06004KT P6SM OVC014
     FM051700 09006KT P6SM BKN200
     FM060500 05006KT 6SM -RA BR OVC015=

USA.gov is the U.S. government's official web portal to all federal, state and local government web resources and services.